Time;durP1;ratioP1;P1;durP2;ratioP2;P2;SDS_P1;SDS_P2;PMS_P1;PMS_P2;Temp;Humidity;BMP_temperature;BMP_pressure;BME280_temperature;BME280_humidity;BME280_pressure;Samples;Min_cycle;Max_cycle;Signal;HPM_P1;HPM_P2
2021/03/04 00:02:21;;;;;;;111.73;45.13;;;;;;;8.06;100.00;102955.45;1798470;79;941078;-74
2021/03/04 00:04:51;;;;;;;110.43;43.67;;;;;;;8.04;100.00;102963.98;1786774;79;941049;-74
2021/03/04 00:07:21;;;;;;;112.13;44.30;;;;;;;8.09;100.00;102962.78;1799210;79;940769;-74
2021/03/04 00:09:51;;;;;;;97.13;42.27;;;;;;;8.08;100.00;102957.48;1787424;78;940716;-73
2021/03/04 00:12:20;;;;;;;96.83;41.13;;;;;;;8.10;100.00;102958.95;1799220;77;938704;-73
2021/03/04 00:14:50;;;;;;;103.17;40.60;;;;;;;8.08;100.00;102963.02;1787434;79;937442;-74
2021/03/04 00:17:20;;;;;;;89.40;39.17;;;;;;;7.97;100.00;102955.36;1799268;79;940548;-73
2021/03/04 00:19:50;;;;;;;90.27;38.97;;;;;;;7.97;100.00;102947.06;1787365;79;938704;-73
2021/03/04 00:22:20;;;;;;;84.97;38.10;;;;;;;7.96;100.00;102961.98;1799225;78;938738;-73
2021/03/04 00:24:50;;;;;;;79.03;36.10;;;;;;;7.92;100.00;102958.78;1787373;79;938650;-74
2021/03/04 00:27:19;;;;;;;84.87;37.93;;;;;;;7.91;100.00;102967.31;1799247;77;938713;-73
2021/03/04 00:29:49;;;;;;;76.43;34.83;;;;;;;7.97;100.00;102964.52;1787321;78;938760;-74
2021/03/04 00:32:19;;;;;;;82.90;36.47;;;;;;;7.96;100.00;102967.52;1799115;79;938592;-73
2021/03/04 00:34:49;;;;;;;78.23;36.10;;;;;;;8.02;100.00;102963.88;1787493;78;938630;-74
2021/03/04 00:37:19;;;;;;;67.20;33.40;;;;;;;7.95;100.00;102970.83;1799206;78;938673;-73
2021/03/04 00:39:48;;;;;;;69.77;35.90;;;;;;;7.97;100.00;102970.05;1787461;79;938683;-74
2021/03/04 00:42:18;;;;;;;71.83;34.20;;;;;;;7.96;100.00;102965.58;1799308;79;938824;-74
2021/03/04 00:44:48;;;;;;;73.13;34.77;;;;;;;7.96;100.00;102967.52;1787365;79;938892;-74
2021/03/04 00:47:18;;;;;;;67.10;33.40;;;;;;;7.84;100.00;102975.61;1799285;78;938640;-73
2021/03/04 00:49:48;;;;;;;66.25;35.40;;;;;;;7.90;100.00;102972.00;1788662;79;938570;-73
2021/03/04 00:52:18;;;;;;;76.95;34.00;;;;;;;7.82;100.00;102969.46;1769407;79;938629;-73
2021/03/04 00:54:48;;;;;;;74.60;35.37;;;;;;;7.80;100.00;102974.34;1788933;78;937677;-74
2021/03/04 00:57:18;;;;;;;75.03;35.30;;;;;;;7.81;100.00;102969.66;1798815;78;938673;-73
2021/03/04 00:59:48;;;;;;;68.93;33.40;;;;;;;7.78;100.00;102968.19;1790417;78;938684;-74
2021/03/04 01:02:19;;;;;;;72.30;34.37;;;;;;;7.76;100.00;102960.62;1807260;77;938686;-73
2021/03/04 01:04:48;;;;;;;66.13;31.43;;;;;;;7.71;100.00;102964.03;1812969;77;937850;-74
2021/03/04 01:07:18;;;;;;;69.53;32.63;;;;;;;7.77;100.00;102967.34;1824620;76;938589;-73
2021/03/04 01:09:48;;;;;;;56.73;30.07;;;;;;;7.75;100.00;102966.69;1787230;78;938656;-74
2021/03/04 01:12:18;;;;;;;60.80;31.40;;;;;;;7.78;100.00;102962.66;1799287;77;938540;-73
2021/03/04 01:14:48;;;;;;;58.87;29.77;;;;;;;7.87;100.00;102959.13;1758074;80;938707;-74
2021/03/04 01:17:18;;;;;;;59.23;30.20;;;;;;;7.72;100.00;102959.35;1799167;77;938596;-73
2021/03/04 01:19:48;;;;;;;58.78;29.82;;;;;;;7.75;100.00;102953.38;1812808;77;938632;-74
2021/03/04 01:22:18;;;;;;;50.37;28.13;;;;;;;7.74;100.00;102948.37;1824682;77;938914;-73
2021/03/04 01:24:48;;;;;;;52.30;28.87;;;;;;;7.85;100.00;102946.88;1790619;78;938811;-73
2021/03/04 01:27:18;;;;;;;52.43;29.23;;;;;;;7.68;100.00;102935.95;1838996;76;937569;-73
2021/03/04 01:29:48;;;;;;;50.90;27.07;;;;;;;7.75;100.00;102947.32;1789819;79;938001;-73
2021/03/04 01:32:18;;;;;;;51.33;28.37;;;;;;;7.82;100.00;102943.70;1768490;80;937502;-73
2021/03/04 01:34:48;;;;;;;52.53;28.13;;;;;;;7.87;100.00;102947.53;1789299;79;938852;-76
2021/03/04 01:37:18;;;;;;;59.40;30.40;;;;;;;7.66;100.00;102937.54;1768565;78;938686;-73
2021/03/04 01:39:48;;;;;;;59.75;30.72;;;;;;;7.67;100.00;102937.87;1790642;79;938531;-74
2021/03/04 01:42:18;;;;;;;64.22;32.00;;;;;;;7.68;100.00;102935.95;1768409;78;938577;-73
2021/03/04 01:44:48;;;;;;;61.97;30.90;;;;;;;7.68;100.00;102941.48;1789952;79;938985;-74
2021/03/04 01:47:19;;;;;;;57.40;29.63;;;;;;;7.68;100.00;102938.72;1799206;78;938958;-73
2021/03/04 01:49:49;;;;;;;57.77;30.20;;;;;;;7.80;100.00;102942.52;1787276;78;938832;-74
2021/03/04 01:52:20;;;;;;;59.83;30.40;;;;;;;7.83;100.00;102937.93;1798952;78;938833;-74
2021/03/04 01:54:50;;;;;;;59.10;29.23;;;;;;;7.63;100.00;102937.12;1787559;78;937828;-73
2021/03/04 01:57:20;;;;;;;54.60;29.73;;;;;;;7.54;100.00;102928.73;1799188;77;938636;-73
2021/03/04 01:59:50;;;;;;;54.10;29.00;;;;;;;7.60;100.00;102930.12;1787581;77;938855;-74
2021/03/04 02:02:20;;;;;;;55.40;28.40;;;;;;;7.64;100.00;102940.22;1799024;78;938796;-74
2021/03/04 02:04:50;;;;;;;54.73;27.83;;;;;;;7.72;100.00;102935.84;1787340;79;938905;-73
2021/03/04 02:07:25;;;;;;;48.03;26.53;;;;;;;7.56;100.00;102935.77;1799053;79;938750;-73
2021/03/04 02:09:58;;;;;;;43.87;24.47;;;;;;;7.58;100.00;102930.85;1786959;77;938568;-74
2021/03/04 02:12:32;;;;;;;47.77;25.93;;;;;;;7.60;100.00;102929.27;1799079;77;937884;-73
2021/03/04 02:15:04;;;;;;;42.23;24.55;;;;;;;7.50;100.00;102930.22;1787443;79;938722;-74
2021/03/04 02:17:37;;;;;;;44.50;24.93;;;;;;;7.48;100.00;102933.23;1799245;77;937144;-74
2021/03/04 02:20:12;;;;;;;45.63;25.53;;;;;;;7.52;100.00;102927.58;1787353;78;938603;-74
2021/03/04 02:23:04;;;;;;;48.87;25.30;;;;;;;7.44;100.00;102921.42;1799154;78;936775;-75
2021/03/04 02:25:39;;;;;;;44.17;25.63;;;;;;;7.44;100.00;102922.80;1799151;77;936819;-75
2021/03/04 02:28:10;;;;;;;45.27;24.77;;;;;;;7.47;100.00;102916.84;1787303;78;938597;-75
2021/03/04 02:30:43;;;;;;;49.33;25.80;;;;;;;7.36;100.00;102911.97;1799168;79;936801;-75
2021/03/04 02:33:15;;;;;;;53.73;28.50;;;;;;;7.42;100.00;102906.41;1787252;77;938727;-74
2021/03/04 02:35:47;;;;;;;49.67;28.00;;;;;;;7.42;100.00;102901.41;1799197;78;936616;-74
2021/03/04 02:38:20;;;;;;;55.70;31.77;;;;;;;7.47;100.00;102904.39;1799098;77;938719;-75
2021/03/04 02:40:53;;;;;;;55.53;31.97;;;;;;;7.35;100.00;102895.05;1787073;78;938909;-73
2021/03/04 02:43:25;;;;;;;59.80;33.43;;;;;;;7.43;100.00;102900.36;1799030;78;938936;-73
2021/03/04 02:45:56;;;;;;;69.97;33.78;;;;;;;7.38;100.00;102897.37;1787354;79;938687;-73
2021/03/04 02:48:27;;;;;;;69.03;36.43;;;;;;;7.35;100.00;102895.91;1799037;79;938603;-73
2021/03/04 02:50:59;;;;;;;69.62;34.55;;;;;;;7.28;100.00;102897.27;1787275;79;938784;-73
2021/03/04 02:53:29;;;;;;;74.63;35.37;;;;;;;7.33;100.00;102890.58;1799081;78;938622;-73
2021/03/04 02:56:00;;;;;;;72.27;36.70;;;;;;;7.34;100.00;102885.91;1787447;77;938663;-73
2021/03/04 02:58:31;;;;;;;74.03;36.03;;;;;;;7.23;100.00;102882.41;1799087;78;937558;-73
2021/03/04 03:01:02;;;;;;;72.93;36.63;;;;;;;7.31;100.00;102887.20;1787258;77;937786;-73
2021/03/04 03:03:33;;;;;;;79.60;36.07;;;;;;;7.32;100.00;102881.96;1798878;78;939044;-73
2021/03/04 03:06:05;;;;;;;89.83;38.13;;;;;;;7.31;100.00;102885.81;1787412;77;938757;-73
2021/03/04 03:08:36;;;;;;;77.47;36.37;;;;;;;7.22;100.00;102887.09;1798973;79;936604;-73
2021/03/04 03:11:06;;;;;;;80.23;37.23;;;;;;;7.27;100.00;102885.89;1787375;78;938619;-73
2021/03/04 03:13:38;;;;;;;82.80;37.27;;;;;;;7.21;100.00;102874.33;1799129;77;936690;-73
2021/03/04 03:16:08;;;;;;;89.33;37.00;;;;;;;7.19;100.00;102878.34;1787224;79;938788;-73
2021/03/04 03:18:37;;;;;;;86.87;38.10;;;;;;;7.24;100.00;102873.03;1799090;79;937191;-73
2021/03/04 03:21:07;;;;;;;82.27;36.13;;;;;;;7.22;100.00;102872.42;1787211;77;938854;-73
2021/03/04 03:23:37;;;;;;;93.63;37.63;;;;;;;7.20;100.00;102874.00;1799139;79;936729;-73
2021/03/04 03:26:07;;;;;;;85.47;38.33;;;;;;;7.17;100.00;102870.29;1787293;78;938796;-73
2021/03/04 03:28:37;;;;;;;86.73;37.33;;;;;;;7.13;100.00;102870.41;1798996;78;936703;-73
2021/03/04 03:31:07;;;;;;;84.97;39.20;;;;;;;7.13;100.00;102866.78;1787505;77;938758;-73
2021/03/04 03:33:38;;;;;;;87.80;38.40;;;;;;;7.19;100.00;102870.91;1799049;79;936800;-73
2021/03/04 03:36:11;;;;;;;91.67;38.00;;;;;;;7.16;100.00;102867.20;1787260;78;938685;-73
2021/03/04 03:38:42;;;;;;;96.00;39.33;;;;;;;7.15;100.00;102865.49;1799094;78;936739;-73
2021/03/04 03:41:13;;;;;;;92.50;37.40;;;;;;;7.13;100.00;102865.40;1799246;78;938741;-73
2021/03/04 03:43:44;;;;;;;90.67;36.47;;;;;;;7.06;100.00;102868.15;1799095;79;936552;-73
2021/03/04 03:46:35;;;;;;;85.33;38.13;;;;;;;7.09;100.00;102867.75;1734508;81;938675;-73
2021/03/04 03:49:06;;;;;;;89.20;36.63;;;;;;;7.09;100.00;102859.98;1733912;80;938835;-73
2021/03/04 03:51:37;;;;;;;78.33;34.83;;;;;;;7.10;100.00;102868.60;1734979;81;936806;-73
2021/03/04 03:54:09;;;;;;;82.13;35.93;;;;;;;7.13;100.00;102868.16;1733844;79;938699;-73
2021/03/04 03:56:40;;;;;;;73.30;33.20;;;;;;;7.04;100.00;102865.30;1745142;79;936889;-73
2021/03/04 03:59:12;;;;;;;69.58;33.23;;;;;;;7.06;100.00;102858.48;1733760;81;938809;-73
2021/03/04 04:01:43;;;;;;;65.33;32.23;;;;;;;7.02;100.00;102864.11;1745307;80;936878;-73
2021/03/04 04:04:14;;;;;;;67.40;32.53;;;;;;;7.02;100.00;102860.49;1745336;81;938661;-73
2021/03/04 04:06:44;;;;;;;63.03;30.93;;;;;;;7.04;100.00;102865.30;1745349;80;936959;-73
2021/03/04 04:09:15;;;;;;;63.33;31.07;;;;;;;7.01;100.00;102863.82;1745238;80;938862;-73
2021/03/04 04:11:45;;;;;;;59.45;28.80;;;;;;;7.00;100.00;102855.73;1745308;80;936990;-72
2021/03/04 04:14:15;;;;;;;59.57;30.90;;;;;;;7.00;100.00;102854.34;1745380;79;938967;-72
2021/03/04 04:16:45;;;;;;;66.13;31.77;;;;;;;7.02;100.00;102855.82;1734863;80;936810;-72
2021/03/04 04:19:15;;;;;;;76.93;33.27;;;;;;;7.02;100.00;102853.06;1788553;79;938685;-72
2021/03/04 04:21:45;;;;;;;79.83;33.43;;;;;;;6.98;100.00;102857.84;1799181;78;936680;-73
2021/03/04 04:24:15;;;;;;;78.90;32.60;;;;;;;6.93;100.00;102851.56;1799068;78;938842;-73
2021/03/04 04:26:45;;;;;;;82.87;33.23;;;;;;;6.94;100.00;102857.42;1799012;79;936927;-73
2021/03/04 04:29:15;;;;;;;80.30;32.43;;;;;;;6.90;100.00;102861.67;1799099;79;938703;-73
2021/03/04 04:31:45;;;;;;;93.20;35.10;;;;;;;6.97;100.00;102866.69;1799011;79;936765;-73
2021/03/04 04:34:14;;;;;;;79.77;33.07;;;;;;;6.81;100.00;102858.80;1769301;79;938742;-73
2021/03/04 04:36:44;;;;;;;85.27;33.90;;;;;;;6.89;100.00;102859.96;1798643;78;936783;-73
2021/03/04 04:39:14;;;;;;;80.57;33.97;;;;;;;6.89;100.00;102857.76;1798711;78;938706;-73
2021/03/04 04:41:44;;;;;;;86.33;35.20;;;;;;;6.87;100.00;102860.72;1799080;79;936993;-73
2021/03/04 04:44:14;;;;;;;87.07;35.10;;;;;;;6.86;100.00;102861.77;1799090;78;938651;-72
2021/03/04 04:46:43;;;;;;;84.13;34.47;;;;;;;6.91;100.00;102870.28;1799155;79;936823;-73
2021/03/04 04:49:13;;;;;;;95.07;33.10;;;;;;;6.92;100.00;102862.33;1799098;78;938982;-73
2021/03/04 04:51:43;;;;;;;94.17;36.10;;;;;;;6.72;100.00;102856.77;1799185;77;936846;-73
2021/03/04 04:54:13;;;;;;;95.40;34.70;;;;;;;6.73;100.00;102859.00;1799095;78;938829;-74
2021/03/04 04:56:42;;;;;;;97.53;34.80;;;;;;;6.71;100.00;102857.00;1799144;78;936758;-74
2021/03/04 04:59:13;;;;;;;92.37;33.80;;;;;;;6.59;100.00;102855.36;1799152;78;938791;-73
2021/03/04 05:01:42;;;;;;;85.67;32.93;;;;;;;6.59;100.00;102851.78;1787250;78;936726;-74
2021/03/04 05:04:12;;;;;;;95.33;35.43;;;;;;;6.59;100.00;102854.55;1799171;79;938967;-74
2021/03/04 05:06:42;;;;;;;83.27;34.00;;;;;;;6.58;100.00;102852.83;1799055;79;936853;-73
2021/03/04 05:09:12;;;;;;;82.03;32.10;;;;;;;6.67;100.00;102861.24;1799045;78;938626;-73
2021/03/04 05:11:42;;;;;;;81.20;31.60;;;;;;;6.64;100.00;102863.02;1799121;79;936810;-73
2021/03/04 05:14:12;;;;;;;78.03;32.43;;;;;;;6.57;100.00;102865.78;1787072;77;937897;-73
2021/03/04 05:16:41;;;;;;;85.03;32.67;;;;;;;6.66;100.00;102864.53;1799208;78;936628;-73
2021/03/04 05:19:11;;;;;;;75.80;30.77;;;;;;;6.62;100.00;102867.92;1787417;79;938923;-73
2021/03/04 05:21:41;;;;;;;71.27;27.60;;;;;;;6.54;100.00;102863.45;1799201;78;936833;-73
2021/03/04 05:24:12;;;;;;;67.97;26.73;;;;;;;6.51;100.00;102867.99;1787527;78;937422;-74
2021/03/04 05:26:42;;;;;;;62.08;25.95;;;;;;;6.50;100.00;102862.17;1799350;79;936979;-73
2021/03/04 05:29:12;;;;;;;61.57;25.50;;;;;;;6.47;100.00;102867.23;1787472;77;938922;-73
2021/03/04 05:31:41;;;;;;;59.10;25.77;;;;;;;6.53;100.00;102851.23;1799354;78;936710;-73
2021/03/04 05:34:11;;;;;;;62.67;25.53;;;;;;;6.51;100.00;102855.56;1787524;78;938904;-73
2021/03/04 05:36:41;;;;;;;55.20;23.53;;;;;;;6.42;100.00;102855.99;1799396;79;936707;-73
2021/03/04 05:39:11;;;;;;;52.10;21.60;;;;;;;6.43;100.00;102850.77;1787482;79;938790;-73
2021/03/04 05:41:42;;;;;;;49.30;21.53;;;;;;;6.43;100.00;102846.63;1799221;79;936787;-74
2021/03/04 05:44:12;;;;;;;54.97;22.33;;;;;;;6.46;100.00;102844.30;1787521;77;938647;-73
2021/03/04 05:46:44;;;;;;;51.43;21.20;;;;;;;6.39;100.00;102840.16;1799353;79;936802;-73
2021/03/04 05:49:16;;;;;;;43.93;20.33;;;;;;;6.31;100.00;102845.88;1799152;78;938748;-73
2021/03/04 05:51:49;;;;;;;37.33;18.60;;;;;;;6.38;100.00;102852.25;1799351;79;936766;-74
2021/03/04 05:54:22;;;;;;;39.87;17.47;;;;;;;6.40;100.00;102852.05;1799343;77;938998;-73
2021/03/04 05:56:51;;;;;;;33.07;16.57;;;;;;;6.36;100.00;102854.38;1787212;78;938633;-74
2021/03/04 05:59:23;;;;;;;34.67;16.53;;;;;;;6.45;100.00;102851.42;1799089;77;938712;-73
2021/03/04 06:01:54;;;;;;;32.65;15.88;;;;;;;6.37;100.00;102854.68;1787247;79;938733;-74
2021/03/04 06:04:24;;;;;;;32.87;16.40;;;;;;;6.43;100.00;102852.15;1799280;78;938697;-73
2021/03/04 06:06:54;;;;;;;30.05;15.93;;;;;;;6.34;100.00;102852.34;1787475;78;938643;-76
2021/03/04 06:09:23;;;;;;;32.40;15.63;;;;;;;6.24;100.00;102855.20;1799311;77;938876;-73
2021/03/04 06:11:53;;;;;;;29.53;13.83;;;;;;;6.17;100.00;102851.55;1787522;78;938644;-74
2021/03/04 06:14:23;;;;;;;29.30;14.50;;;;;;;6.18;100.00;102848.59;1799299;79;938660;-74
2021/03/04 06:16:53;;;;;;;28.55;14.53;;;;;;;6.17;100.00;102852.41;1787494;77;938819;-73
2021/03/04 06:19:24;;;;;;;27.33;15.10;;;;;;;6.15;100.00;102854.53;1799272;78;938655;-73
2021/03/04 06:22:00;;;;;;;29.47;14.70;;;;;;;6.19;100.00;102848.06;1787332;78;938558;-74
2021/03/04 06:24:30;;;;;;;30.40;15.40;;;;;;;6.16;100.00;102852.07;1799153;77;938796;-74
2021/03/04 06:27:00;;;;;;;32.20;16.73;;;;;;;6.16;100.00;102853.45;1787503;79;938527;-74
2021/03/04 06:29:31;;;;;;;28.00;16.10;;;;;;;6.22;100.00;102853.16;1799203;79;938662;-74
2021/03/04 06:32:04;;;;;;;25.23;14.75;;;;;;;6.17;100.00;102853.78;1787447;79;938798;-74
2021/03/04 06:34:35;;;;;;;28.23;14.17;;;;;;;6.18;100.00;102854.11;1799384;79;937044;-74
2021/03/04 06:37:06;;;;;;;26.80;12.97;;;;;;;6.19;100.00;102853.58;1787598;77;938791;-74
2021/03/04 06:39:44;;;;;;;24.80;12.83;;;;;;;6.00;100.00;102851.06;1799269;77;936947;-73
2021/03/04 06:42:17;;;;;;;20.03;11.27;;;;;;;5.95;100.00;102848.06;1798848;78;938662;-75
2021/03/04 06:44:50;;;;;;;23.43;12.20;;;;;;;6.05;100.00;102856.82;1793861;77;938691;-75
2021/03/04 06:47:24;;;;;;;21.10;11.30;;;;;;;5.94;100.00;102856.05;1769450;80;938774;-75
2021/03/04 06:49:56;;;;;;;18.93;10.83;;;;;;;5.98;100.00;102860.61;1786723;78;938719;-74
2021/03/04 06:52:28;;;;;;;19.17;10.30;;;;;;;5.92;100.00;102862.28;1798488;78;938708;-75
2021/03/04 06:55:09;;;;;;;19.20;10.60;;;;;;;5.92;100.00;102851.25;1786736;78;938503;-73
2021/03/04 06:57:39;;;;;;;23.23;12.23;;;;;;;5.94;100.00;102861.03;1799091;77;936734;-74
2021/03/04 07:00:20;;;;;;;21.33;11.37;;;;;;;5.91;100.00;102864.70;1787193;78;938865;-74
2021/03/04 07:02:54;;;;;;;21.43;11.70;;;;;;;5.91;100.00;102864.70;1787351;78;938759;-74
2021/03/04 07:05:24;;;;;;;21.33;12.67;;;;;;;6.03;100.00;102871.37;1799137;78;938613;-73
2021/03/04 07:07:57;;;;;;;22.73;11.03;;;;;;;6.07;100.00;102880.94;1787242;79;938533;-74
2021/03/04 07:10:29;;;;;;;22.63;12.17;;;;;;;6.04;100.00;102878.56;1799175;78;938647;-74
2021/03/04 07:13:01;;;;;;;20.90;11.25;;;;;;;5.97;100.00;102884.59;1787357;79;938625;-74
2021/03/04 07:15:32;;;;;;;22.43;11.70;;;;;;;5.94;100.00;102890.00;1799166;78;938617;-74
2021/03/04 07:18:02;;;;;;;22.83;12.47;;;;;;;5.93;100.00;102891.05;1787357;77;938536;-73
2021/03/04 07:20:34;;;;;;;23.93;11.90;;;;;;;6.04;100.00;102897.87;1799354;79;938641;-74
2021/03/04 07:23:05;;;;;;;20.20;12.07;;;;;;;6.03;100.00;102895.34;1787581;78;938631;-74
2021/03/04 07:25:36;;;;;;;21.73;11.30;;;;;;;6.07;100.00;102901.63;1799504;79;936817;-74
2021/03/04 07:28:08;;;;;;;20.32;10.48;;;;;;;5.91;100.00;102898.66;1787282;78;938876;-74
2021/03/04 07:30:39;;;;;;;19.60;10.40;;;;;;;5.89;100.00;102895.80;1799307;77;936770;-74
2021/03/04 07:33:10;;;;;;;17.73;9.80;;;;;;;5.85;100.00;102900.84;1787275;78;938572;-74
2021/03/04 07:35:40;;;;;;;21.43;11.07;;;;;;;5.92;100.00;102897.61;1799243;78;934760;-74
2021/03/04 07:38:10;;;;;;;24.07;11.20;;;;;;;5.86;100.00;102890.67;1787359;79;938929;-73
2021/03/04 07:40:40;;;;;;;22.10;12.00;;;;;;;5.99;100.00;102893.49;1799141;79;936711;-74
2021/03/04 07:43:10;;;;;;;22.80;12.10;;;;;;;5.99;100.00;102890.73;1787407;77;937520;-74
2021/03/04 07:45:46;;;;;;;23.60;11.87;;;;;;;5.99;100.00;102885.77;1799356;79;936793;-73
2021/03/04 07:48:18;;;;;;;24.43;12.40;;;;;;;5.98;100.00;102889.05;1799221;78;938649;-74
2021/03/04 07:50:58;;;;;;;25.77;12.57;;;;;;;5.98;100.00;102897.33;1788610;79;938548;-74
2021/03/04 07:53:28;;;;;;;24.47;12.43;;;;;;;5.95;100.00;102898.58;1768426;80;938878;-73
2021/03/04 07:55:58;;;;;;;26.03;12.50;;;;;;;6.00;100.00;102906.77;1787261;79;938669;-74
2021/03/04 07:58:37;;;;;;;22.42;12.37;;;;;;;5.94;100.00;102909.31;1799096;79;938671;-73
2021/03/04 08:01:14;;;;;;;24.23;12.57;;;;;;;5.87;100.00;102905.64;1787286;78;938804;-73
2021/03/04 08:03:52;;;;;;;25.03;12.23;;;;;;;5.83;100.00;102901.56;1799212;78;936844;-74
2021/03/04 08:06:21;;;;;;;20.93;10.40;;;;;;;5.72;100.00;102903.52;1798886;78;938836;-74
2021/03/04 08:08:51;;;;;;;18.73;10.60;;;;;;;5.81;100.00;102902.30;1787354;77;938613;-74
2021/03/04 08:11:29;;;;;;;18.97;10.30;;;;;;;5.70;100.00;102904.77;1799116;79;937872;-74
2021/03/04 08:13:59;;;;;;;21.80;9.83;;;;;;;5.73;100.00;102905.23;1787333;78;938681;-73
2021/03/04 08:16:29;;;;;;;18.87;10.37;;;;;;;5.74;100.00;102908.81;1799055;79;936470;-74
2021/03/04 08:19:00;;;;;;;20.60;10.08;;;;;;;5.71;100.00;102913.36;1787318;77;938676;-75
2021/03/04 08:21:30;;;;;;;24.63;10.73;;;;;;;5.62;100.00;102904.41;1799331;78;938696;-74
2021/03/04 08:24:01;;;;;;;20.93;11.57;;;;;;;5.69;100.00;102906.66;1787401;77;938607;-74
2021/03/04 08:26:36;;;;;;;22.60;12.33;;;;;;;5.81;100.00;102909.73;1799196;79;938761;-74
2021/03/04 08:29:08;;;;;;;20.45;11.60;;;;;;;5.68;100.00;102911.88;1787361;77;938746;-73
2021/03/04 08:31:44;;;;;;;19.67;11.13;;;;;;;5.81;100.00;102906.45;1799313;78;936538;-74
2021/03/04 08:34:13;;;;;;;23.60;12.63;;;;;;;5.87;100.00;102903.41;1799076;79;938864;-74
2021/03/04 08:36:45;;;;;;;24.53;13.60;;;;;;;5.88;100.00;102903.74;1799088;78;936798;-72
2021/03/04 08:39:16;;;;;;;26.27;13.37;;;;;;;5.91;100.00;102910.22;1799245;78;938751;-73
2021/03/04 08:41:45;;;;;;;27.33;13.80;;;;;;;5.85;100.00;102917.39;1799103;79;936819;-73
2021/03/04 08:44:18;;;;;;;27.63;14.87;;;;;;;5.78;100.00;102919.77;1799018;79;939077;-72
2021/03/04 08:46:51;;;;;;;29.53;14.43;;;;;;;5.99;100.00;102920.26;1789092;77;937490;-73
2021/03/04 08:49:22;;;;;;;30.63;15.67;;;;;;;5.83;100.00;102913.97;1768409;78;937691;-73
2021/03/04 08:51:54;;;;;;;26.93;14.10;;;;;;;6.05;100.00;102929.93;1787299;79;938683;-73
2021/03/04 08:54:26;;;;;;;32.37;16.20;;;;;;;6.09;100.00;102938.64;1799154;77;938897;-73
2021/03/04 08:56:57;;;;;;;31.42;15.85;;;;;;;6.07;100.00;102931.12;1787397;78;938668;-73
2021/03/04 08:59:28;;;;;;;33.80;16.27;;;;;;;6.14;100.00;102938.36;1799119;78;938747;-74
2021/03/04 09:01:59;;;;;;;37.38;17.30;;;;;;;6.05;100.00;102929.93;1787243;77;947440;-73
2021/03/04 09:04:30;;;;;;;35.77;17.70;;;;;;;6.01;100.00;102937.44;1799100;77;938626;-73
2021/03/04 09:07:00;;;;;;;33.63;16.17;;;;;;;6.08;100.00;102939.17;1787361;78;938812;-73
2021/03/04 09:09:31;;;;;;;36.80;17.57;;;;;;;6.07;100.00;102940.77;1799219;78;938683;-74
2021/03/04 09:12:01;;;;;;;34.23;17.57;;;;;;;6.11;100.00;102941.55;1787388;79;938680;-72
2021/03/04 09:14:33;;;;;;;39.37;18.50;;;;;;;6.05;100.00;102942.88;1799222;78;938755;-74
2021/03/04 09:17:04;;;;;;;42.03;18.90;;;;;;;6.04;100.00;102943.92;1787348;79;938868;-74
2021/03/04 09:19:38;;;;;;;37.77;18.33;;;;;;;5.97;100.00;102944.42;1799157;79;936757;-73
2021/03/04 09:22:09;;;;;;;40.60;18.57;;;;;;;6.07;100.00;102946.30;1787326;78;938785;-73
2021/03/04 09:24:41;;;;;;;39.70;18.43;;;;;;;6.13;100.00;102944.08;1799173;78;936810;-72
2021/03/04 09:27:13;;;;;;;42.77;20.20;;;;;;;6.24;100.00;102937.99;1787381;78;938575;-73
2021/03/04 09:29:44;;;;;;;38.23;18.35;;;;;;;6.24;100.00;102937.99;1798975;78;936836;-72
2021/03/04 09:32:15;;;;;;;41.97;19.53;;;;;;;6.16;100.00;102943.13;1799020;77;938708;-73
2021/03/04 09:34:46;;;;;;;43.63;18.80;;;;;;;6.16;100.00;102943.13;1799049;78;936662;-74
2021/03/04 09:37:18;;;;;;;40.90;18.23;;;;;;;6.35;100.00;102942.38;1798977;77;938905;-75
2021/03/04 09:39:50;;;;;;;44.07;19.70;;;;;;;6.50;100.00;102946.91;1786887;77;938607;-75
2021/03/04 09:42:21;;;;;;;40.13;20.13;;;;;;;6.61;100.00;102950.44;1799091;79;938593;-76
2021/03/04 09:44:54;;;;;;;43.37;19.80;;;;;;;6.49;100.00;102949.34;1787395;78;937925;-75
2021/03/04 09:47:27;;;;;;;44.13;20.15;;;;;;;6.37;100.00;102949.09;1798953;79;938770;-75
2021/03/04 09:49:59;;;;;;;42.65;20.45;;;;;;;6.34;100.00;102946.72;1787175;77;938716;-76
2021/03/04 09:52:31;;;;;;;41.23;20.13;;;;;;;6.36;100.00;102948.23;1799210;78;937680;-77
2021/03/04 09:55:10;;;;;;;42.55;19.37;;;;;;;6.37;100.00;102942.19;1787389;77;938685;-76
2021/03/04 09:57:41;;;;;;;39.30;19.43;;;;;;;6.50;100.00;102946.38;1799067;77;936800;-78
2021/03/04 10:00:23;;;;;;;38.43;19.17;;;;;;;6.49;100.00;102952.09;1787140;78;938585;-76
2021/03/04 10:02:56;;;;;;;39.48;19.90;;;;;;;6.52;100.00;102949.77;1787111;78;938734;-76
2021/03/04 10:05:26;;;;;;;34.33;18.77;;;;;;;6.51;100.00;102952.20;1798962;78;938712;-76
2021/03/04 10:08:01;;;;;;;39.45;18.57;;;;;;;6.39;100.00;102955.23;1787323;79;938586;-76
2021/03/04 10:10:30;;;;;;;39.27;18.33;;;;;;;6.42;100.00;102952.61;1798911;77;938679;-77
2021/03/04 10:13:00;;;;;;;38.65;19.50;;;;;;;6.32;100.00;102953.84;1787413;78;938719;-75
2021/03/04 10:15:32;;;;;;;38.17;19.40;;;;;;;6.30;100.00;102953.19;1799120;78;938756;-76
2021/03/04 10:18:05;;;;;;;33.00;17.82;;;;;;;6.34;100.00;102959.14;1787467;78;938830;-75
2021/03/04 10:20:36;;;;;;;37.00;17.77;;;;;;;6.33;100.00;102955.52;1799214;78;936762;-76
2021/03/04 10:23:06;;;;;;;36.57;16.87;;;;;;;6.33;100.00;102961.60;1787439;77;938611;-75
2021/03/04 10:25:36;;;;;;;34.40;17.47;;;;;;;6.17;100.00;102953.64;1799228;77;936822;-77
2021/03/04 10:28:08;;;;;;;32.73;16.67;;;;;;;6.33;100.00;102933.44;1787523;78;938790;-74
2021/03/04 10:30:40;;;;;;;30.93;16.53;;;;;;;6.33;100.00;102933.44;1799208;77;937026;-74
2021/03/04 10:33:11;;;;;;;36.43;17.13;;;;;;;6.31;100.00;102945.76;1787155;78;937667;-74
2021/03/04 10:35:41;;;;;;;31.27;15.23;;;;;;;6.48;100.00;102949.86;1799107;78;936835;-74
2021/03/04 10:38:11;;;;;;;29.03;15.67;;;;;;;6.44;100.00;102946.34;1787117;78;938736;-75
2021/03/04 10:40:43;;;;;;;28.70;15.40;;;;;;;6.45;100.00;102948.91;1799129;79;936798;-75
2021/03/04 10:43:13;;;;;;;28.07;14.67;;;;;;;6.33;100.00;102951.38;1799286;78;938610;-75
2021/03/04 10:45:42;;;;;;;28.00;14.60;;;;;;;6.33;100.00;102949.18;1799269;78;937007;-74
2021/03/04 10:48:15;;;;;;;26.40;14.93;;;;;;;6.43;100.00;102941.87;1799198;79;938922;-74
2021/03/04 10:50:45;;;;;;;25.50;12.95;;;;;;;6.48;100.00;102944.34;1798933;79;936760;-74
2021/03/04 10:53:15;;;;;;;23.60;13.33;;;;;;;6.59;100.00;102946.48;1798969;79;938633;-75
2021/03/04 10:55:46;;;;;;;25.23;13.10;;;;;;;6.50;100.00;102944.14;1799021;78;936807;-75
2021/03/04 10:58:15;;;;;;;25.43;13.20;;;;;;;6.59;100.00;102947.05;1798926;79;938590;-74
2021/03/04 11:00:45;;;;;;;24.57;13.03;;;;;;;6.60;100.00;102945.44;1799117;77;936858;-76
2021/03/04 11:03:15;;;;;;;26.77;14.17;;;;;;;6.45;100.00;102936.48;1798950;78;938630;-74
2021/03/04 11:05:45;;;;;;;23.87;13.47;;;;;;;6.61;100.00;102938.01;1799081;77;936901;-75
2021/03/04 11:08:15;;;;;;;25.37;13.03;;;;;;;6.67;100.00;102938.56;1799189;78;938559;-75
2021/03/04 11:10:47;;;;;;;24.98;13.25;;;;;;;6.71;100.00;102938.47;1799244;78;936788;-74
2021/03/04 11:13:17;;;;;;;26.00;14.33;;;;;;;6.68;100.00;102939.72;1799193;77;938682;-74
2021/03/04 11:15:46;;;;;;;27.47;13.87;;;;;;;6.73;100.00;102937.19;1799040;79;936794;-74
2021/03/04 11:18:16;;;;;;;28.20;14.30;;;;;;;6.76;100.00;102945.05;1799105;78;938623;-74
2021/03/04 11:20:46;;;;;;;25.93;13.73;;;;;;;6.86;100.00;102946.89;1799271;79;936958;-75